Time;durP1;ratioP1;P1;durP2;ratioP2;P2;SDS_P1;SDS_P2;PMS_P1;PMS_P2;Temp;Humidity;BMP_temperature;BMP_pressure;BME280_temperature;BME280_humidity;BME280_pressure;Samples;Min_cycle;Max_cycle;Signal;HPM_P1;HPM_P2
2023/07/29 00:01:45;;;;;;;;;3.00;2.80;;;;;19.56;80.44;99083.41;5098436;28;8815;-61
2023/07/29 00:04:13;;;;;;;;;2.40;2.40;;;;;19.58;80.51;99081.34;5098817;28;8926;-59
2023/07/29 00:06:41;;;;;;;;;3.00;2.60;;;;;19.60;80.30;99082.00;5098542;28;9514;-58
2023/07/29 00:09:08;;;;;;;;;5.20;4.80;;;;;19.64;80.63;99077.03;5098939;28;8996;-60
2023/07/29 00:11:36;;;;;;;;;4.40;4.40;;;;;19.66;80.43;99083.03;5098398;28;8812;-59
2023/07/29 00:14:04;;;;;;;;;3.60;2.80;;;;;19.67;80.32;99085.56;5098122;28;8861;-58
2023/07/29 00:16:31;;;;;;;;;3.60;3.60;;;;;19.67;80.64;99082.00;5098399;28;8827;-58
2023/07/29 00:18:59;;;;;;;;;6.00;5.80;;;;;19.69;80.64;99088.03;5098444;28;8838;-60
2023/07/29 00:21:27;;;;;;;;;4.00;4.00;;;;;19.69;80.60;99079.94;5098097;28;8823;-60
2023/07/29 00:23:57;;;;;;;;;4.40;4.40;;;;;19.68;80.23;99079.13;5098440;28;8815;-61
2023/07/29 00:26:27;;;;;;;;;1.00;1.00;;;;;19.70;80.32;99079.75;5097606;28;8819;-61
2023/07/29 00:28:55;;;;;;;;;4.00;4.00;;;;;19.70;80.84;99082.44;5098560;28;8815;-61
2023/07/29 00:31:22;;;;;;;;;4.00;4.00;;;;;19.70;80.70;99068.94;5098277;28;8835;-60
2023/07/29 00:33:50;;;;;;;;;2.00;2.00;;;;;19.68;80.39;99062.06;5096917;28;8854;-60
2023/07/29 00:36:18;;;;;;;;;3.60;3.20;;;;;19.64;80.71;99056.22;5097067;28;8816;-59
2023/07/29 00:38:45;;;;;;;;;3.60;3.60;;;;;19.59;80.77;99047.91;5096929;28;8813;-60
2023/07/29 00:41:13;;;;;;;;;2.00;2.00;;;;;19.56;81.32;99050.19;5097842;28;8833;-58
2023/07/29 00:43:41;;;;;;;;;5.00;5.00;;;;;19.54;80.75;99042.25;5097424;28;8978;-60
2023/07/29 00:46:08;;;;;;;;;4.60;4.00;;;;;19.52;80.87;99038.94;5096718;28;8814;-61
2023/07/29 00:48:37;;;;;;;;;3.60;2.20;;;;;19.50;80.81;99046.38;5095853;28;8818;-60
2023/07/29 00:51:05;;;;;;;;;2.20;2.20;;;;;19.48;81.24;99053.88;5096721;28;8817;-59
2023/07/29 00:53:33;;;;;;;;;4.60;4.00;;;;;19.46;81.39;99045.13;5096156;28;8814;-57
2023/07/29 00:56:01;;;;;;;;;3.20;2.80;;;;;19.45;81.16;99042.63;5097582;28;8818;-61
2023/07/29 00:58:28;;;;;;;;;2.40;2.20;;;;;19.42;81.73;99035.75;5098356;28;8830;-60
2023/07/29 01:00:56;;;;;;;;;2.20;2.20;;;;;19.40;81.25;99035.13;5098263;28;8937;-60
2023/07/29 01:03:23;;;;;;;;;4.00;4.00;;;;;19.40;81.35;99037.81;5098572;28;8818;-59
2023/07/29 01:05:51;;;;;;;;;4.00;4.00;;;;;19.39;81.56;99032.63;5098309;28;8844;-59
2023/07/29 01:08:19;;;;;;;;;4.00;3.60;;;;;19.38;81.76;99030.94;5097795;28;8861;-58
2023/07/29 01:10:46;;;;;;;;;4.00;4.00;;;;;19.39;81.45;99033.47;5098152;28;8825;-60
2023/07/29 01:13:14;;;;;;;;;3.60;3.60;;;;;19.40;81.69;99026.19;5098215;28;9472;-60
2023/07/29 01:15:42;;;;;;;;;5.00;4.00;;;;;19.39;81.31;99024.50;5097846;28;8876;-60
2023/07/29 01:18:09;;;;;;;;;4.00;2.80;;;;;19.39;81.23;99019.97;5097601;28;8814;-61
2023/07/29 01:20:37;;;;;;;;;4.00;4.00;;;;;19.38;81.12;99026.41;5097357;28;8841;-60
2023/07/29 01:23:05;;;;;;;;;2.60;2.20;;;;;19.38;81.27;99026.41;5097363;28;8846;-59
2023/07/29 01:25:32;;;;;;;;;6.00;6.00;;;;;19.38;81.48;99021.00;5097380;28;8806;-58
2023/07/29 01:28:00;;;;;;;;;4.60;2.20;;;;;19.39;81.50;99021.81;5097384;28;8810;-61
2023/07/29 01:30:28;;;;;;;;;5.20;5.00;;;;;19.37;81.69;99013.94;5096574;28;8830;-60
2023/07/29 01:32:56;;;;;;;;;5.20;4.00;;;;;19.38;81.61;99015.59;5097032;28;8838;-60
2023/07/29 01:35:23;;;;;;;;;2.80;2.80;;;;;19.38;81.53;99012.91;5097529;28;8821;-60
2023/07/29 01:37:51;;;;;;;;;6.20;4.60;;;;;19.37;81.33;99016.63;5097913;28;8849;-60
2023/07/29 01:40:19;;;;;;;;;4.00;4.00;;;;;19.36;81.51;99014.94;5097633;28;9460;-60
2023/07/29 01:42:46;;;;;;;;;2.40;2.40;;;;;19.38;81.66;99015.59;5097662;28;8807;-58
2023/07/29 01:45:14;;;;;;;;;4.00;4.00;;;;;19.37;81.31;99013.09;5097990;28;8820;-60
2023/07/29 01:47:41;;;;;;;;;2.20;2.20;;;;;19.38;81.75;99009.34;5097989;28;9477;-60
2023/07/29 01:50:09;;;;;;;;;4.20;4.20;;;;;19.39;81.51;99013.72;5097464;28;8896;-60
2023/07/29 01:52:37;;;;;;;;;4.80;4.20;;;;;19.39;81.59;99002.91;5097557;28;8799;-61
2023/07/29 01:55:05;;;;;;;;;2.40;2.40;;;;;19.39;81.40;99011.00;5096397;28;8811;-59
2023/07/29 01:57:32;;;;;;;;;0.80;0.00;;;;;19.38;81.49;99002.09;5096565;28;8812;-59
2023/07/29 02:00:00;;;;;;;;;2.20;2.00;;;;;19.37;81.30;99000.44;5095818;28;8842;-59
2023/07/29 02:02:28;;;;;;;;;4.00;4.00;;;;;19.34;81.76;98990.00;5096761;28;8815;-61
2023/07/29 02:04:55;;;;;;;;;2.80;2.80;;;;;19.33;81.74;98991.06;5096681;28;9461;-60
2023/07/29 02:07:26;;;;;;;;;4.00;4.00;;;;;19.31;81.65;98997.69;5096172;28;9537;-58
2023/07/29 02:09:54;;;;;;;;;4.20;4.20;;;;;19.29;81.55;98989.81;5096474;28;8807;-60
2023/07/29 02:12:21;;;;;;;;;4.00;3.80;;;;;19.29;81.61;98995.19;5095872;28;8812;-60
2023/07/29 02:14:49;;;;;;;;;4.20;4.00;;;;;19.28;82.03;98993.50;5095888;28;8812;-60
2023/07/29 02:17:17;;;;;;;;;3.60;2.80;;;;;19.29;81.55;98994.34;5096345;28;8959;-60
2023/07/29 02:19:45;;;;;;;;;1.20;1.20;;;;;19.29;81.43;98978.16;5095685;28;8823;-60
2023/07/29 02:22:12;;;;;;;;;2.40;2.40;;;;;19.30;81.50;98979.81;5095936;28;8812;-60
2023/07/29 02:24:40;;;;;;;;;2.20;2.20;;;;;19.29;81.33;98976.31;5096720;28;8808;-60
2023/07/29 02:27:08;;;;;;;;;5.00;4.20;;;;;19.30;82.04;98971.72;5097018;28;9454;-60
2023/07/29 02:29:36;;;;;;;;;5.20;5.20;;;;;19.29;81.96;98979.00;5096477;28;8836;-60
2023/07/29 02:32:04;;;;;;;;;5.00;4.60;;;;;19.30;81.91;98977.97;5096492;28;8950;-60
2023/07/29 02:34:31;;;;;;;;;4.40;4.40;;;;;19.30;81.71;98977.97;5096733;28;8823;-60
2023/07/29 02:36:59;;;;;;;;;4.00;3.40;;;;;19.30;81.55;98966.31;5096386;28;8851;-61
2023/07/29 02:39:26;;;;;;;;;4.00;4.00;;;;;19.30;81.89;98969.88;5096155;28;8798;-61
2023/07/29 02:41:55;;;;;;;;;5.20;3.20;;;;;19.30;81.89;98969.88;5096370;28;8830;-61
2023/07/29 02:44:23;;;;;;;;;6.80;4.80;;;;;19.31;81.55;98968.81;5096243;28;8818;-61
2023/07/29 02:46:52;;;;;;;;;1.60;1.60;;;;;19.33;81.48;98969.44;5096580;28;8910;-60
2023/07/29 02:49:19;;;;;;;;;2.20;2.20;;;;;19.33;81.98;98968.59;5096513;28;8818;-60
2023/07/29 02:51:47;;;;;;;;;5.00;5.00;;;;;19.33;81.47;98976.69;5096191;28;8837;-60
2023/07/29 02:54:15;;;;;;;;;6.20;4.40;;;;;19.33;81.54;98974.84;5096473;28;8822;-61
2023/07/29 02:56:42;;;;;;;;;6.00;5.00;;;;;19.31;82.09;98971.53;5096323;28;8834;-61
2023/07/29 02:59:10;;;;;;;;;4.60;4.00;;;;;19.32;81.69;98966.94;5096165;28;8818;-61
2023/07/29 03:01:38;;;;;;;;;4.00;4.00;;;;;19.31;81.46;98966.13;5096027;28;8818;-60
2023/07/29 03:04:06;;;;;;;;;5.80;4.00;;;;;19.32;81.48;98965.09;5095848;28;8830;-61
2023/07/29 03:06:33;;;;;;;;;4.00;2.20;;;;;19.32;81.97;98966.94;5095723;28;8864;-60
2023/07/29 03:09:01;;;;;;;;;4.00;4.00;;;;;19.32;81.86;98967.78;5096070;28;8891;-61
2023/07/29 03:11:30;;;;;;;;;3.20;3.20;;;;;19.32;81.84;98964.25;5096152;28;8822;-60
2023/07/29 03:13:58;;;;;;;;;5.20;5.20;;;;;19.33;82.01;98960.50;5095903;28;8822;-60
2023/07/29 03:16:26;;;;;;;;;3.60;2.20;;;;;19.31;81.58;98960.72;5095800;28;8957;-61
2023/07/29 03:18:53;;;;;;;;;1.00;1.00;;;;;19.32;81.74;98961.53;5096142;28;8830;-61
2023/07/29 03:21:21;;;;;;;;;4.00;2.20;;;;;19.33;81.72;98947.84;5095862;28;8824;-60
2023/07/29 03:23:49;;;;;;;;;3.40;2.20;;;;;19.33;81.48;98958.66;5097210;28;8840;-60
2023/07/29 03:26:16;;;;;;;;;3.80;3.80;;;;;19.33;81.75;98961.34;5100033;28;8848;-61
2023/07/29 03:28:44;;;;;;;;;6.20;4.60;;;;;19.33;81.61;98952.41;5099733;28;8810;-61
2023/07/29 03:31:12;;;;;;;;;4.00;4.00;;;;;19.32;81.71;98954.28;5100083;28;8814;-60
2023/07/29 03:33:40;;;;;;;;;6.60;4.40;;;;;19.32;81.85;98958.84;5100002;28;8830;-59
2023/07/29 03:36:07;;;;;;;;;6.60;6.20;;;;;19.31;81.73;98970.69;5099918;28;8849;-60
2023/07/29 03:38:39;;;;;;;;;5.20;4.40;;;;;19.31;81.62;98960.72;5099825;28;8941;-59
2023/07/29 03:41:07;;;;;;;;;7.60;7.00;;;;;19.33;81.90;98971.31;5099979;28;8896;-60
2023/07/29 03:43:35;;;;;;;;;5.60;4.00;;;;;19.34;81.60;98973.81;5099884;28;8807;-59
2023/07/29 03:46:03;;;;;;;;;6.60;5.00;;;;;19.36;81.99;98973.63;5099741;28;8827;-60
2023/07/29 03:48:31;;;;;;;;;5.00;3.60;;;;;19.38;81.55;98963.44;5099600;28;8900;-59
2023/07/29 03:50:59;;;;;;;;;7.00;5.00;;;;;19.38;81.59;98964.28;5099488;28;8816;-60
2023/07/29 03:53:26;;;;;;;;;7.80;7.00;;;;;19.38;81.92;98964.28;5099320;28;8811;-60
2023/07/29 03:55:54;;;;;;;;;6.00;6.00;;;;;19.37;81.79;98965.31;5099419;28;9508;-60
2023/07/29 03:58:22;;;;;;;;;4.40;4.40;;;;;19.35;82.09;98951.16;5099302;28;8836;-61
2023/07/29 04:00:49;;;;;;;;;8.20;7.00;;;;;19.35;81.68;98953.06;5099285;28;8838;-60
2023/07/29 04:03:17;;;;;;;;;4.00;2.80;;;;;19.34;81.88;98943.28;5099067;28;8800;-60
2023/07/29 04:05:45;;;;;;;;;9.00;6.80;;;;;19.34;82.07;98943.28;5099277;28;8856;-60
2023/07/29 04:08:12;;;;;;;;;4.80;4.00;;;;;19.33;81.59;98945.16;5098811;28;8836;-61
2023/07/29 04:10:40;;;;;;;;;8.40;7.00;;;;;19.32;82.05;98945.34;5099338;28;8795;-61
2023/07/29 04:13:08;;;;;;;;;8.00;7.20;;;;;19.30;81.88;98942.88;5098951;28;8826;-60
2023/07/29 04:15:35;;;;;;;;;6.60;6.60;;;;;19.27;82.20;98959.44;5099103;28;8819;-61
2023/07/29 04:18:03;;;;;;;;;7.00;5.40;;;;;19.25;82.45;98948.03;5098822;28;8812;-60
2023/07/29 04:20:31;;;;;;;;;9.40;9.40;;;;;19.23;82.53;98952.81;5099142;28;8840;-59
2023/07/29 04:22:58;;;;;;;;;7.40;6.60;;;;;19.23;82.50;98960.91;5099240;28;9528;-60
2023/07/29 04:25:26;;;;;;;;;8.80;8.80;;;;;19.24;82.37;98970.66;5099155;28;8831;-61
2023/07/29 04:27:55;;;;;;;;;11.20;9.80;;;;;19.27;82.41;98964.84;5098888;28;8812;-61
2023/07/29 04:30:22;;;;;;;;;8.80;8.80;;;;;19.30;82.05;98963.63;5099034;28;8893;-59
2023/07/29 04:32:50;;;;;;;;;13.20;12.20;;;;;19.34;82.30;98967.59;5098946;28;8854;-60
2023/07/29 04:35:18;;;;;;;;;8.00;7.80;;;;;19.34;81.91;98968.41;5098342;28;8826;-58
2023/07/29 04:37:47;;;;;;;;;10.20;9.60;;;;;19.36;82.28;98971.72;5099235;28;9520;-60
2023/07/29 04:40:15;;;;;;;;;11.80;8.00;;;;;19.37;82.12;98965.31;5098455;28;8863;-59
2023/07/29 04:42:43;;;;;;;;;10.00;8.00;;;;;19.36;82.00;98965.53;5098957;28;8860;-61
2023/07/29 04:45:10;;;;;;;;;10.00;9.60;;;;;19.39;82.21;98962.41;5098533;28;8814;-61
2023/07/29 04:47:38;;;;;;;;;6.80;5.40;;;;;19.40;81.81;98956.81;5098490;28;8814;-61
2023/07/29 04:50:06;;;;;;;;;9.00;6.60;;;;;19.43;81.81;98958.28;5098791;28;8847;-60
2023/07/29 04:52:34;;;;;;;;;7.80;7.00;;;;;19.46;81.85;98952.47;5098582;28;8821;-59
2023/07/29 04:55:01;;;;;;;;;12.00;9.80;;;;;19.49;81.67;98943.97;5098689;28;8829;-61
2023/07/29 04:57:30;;;;;;;;;11.80;11.00;;;;;19.51;81.86;98936.50;5098514;28;8822;-58
2023/07/29 04:59:57;;;;;;;;;10.20;9.20;;;;;19.53;81.66;98948.75;5098162;28;8822;-60
2023/07/29 05:02:25;;;;;;;;;8.40;7.80;;;;;19.56;81.73;98944.81;5098244;28;8810;-60
2023/07/29 05:04:52;;;;;;;;;8.20;8.20;;;;;19.57;81.58;98944.59;5098109;28;8834;-60
2023/07/29 05:07:20;;;;;;;;;8.40;8.40;;;;;19.58;81.80;98945.44;5098234;28;8850;-61
2023/07/29 05:09:48;;;;;;;;;11.20;8.80;;;;;19.58;81.70;98942.75;5098502;28;8841;-59
2023/07/29 05:12:16;;;;;;;;;8.20;8.20;;;;;19.58;82.14;98943.56;5098458;28;8824;-61
2023/07/29 05:14:43;;;;;;;;;5.20;3.20;;;;;19.59;81.96;98937.16;5098111;28;8810;-61
2023/07/29 05:17:11;;;;;;;;;8.40;8.00;;;;;19.62;82.01;98942.13;5097775;28;8834;-60
2023/07/29 05:19:38;;;;;;;;;7.20;7.20;;;;;19.64;81.66;98945.47;5097873;28;8818;-59
2023/07/29 05:22:06;;;;;;;;;4.80;4.40;;;;;19.66;81.56;98956.88;5097775;28;8876;-61
2023/07/29 05:24:34;;;;;;;;;6.00;6.00;;;;;19.68;81.67;98973.75;5097954;28;9714;-61
2023/07/29 05:27:01;;;;;;;;;6.60;6.60;;;;;19.69;81.41;98975.41;5097971;28;8840;-61
2023/07/29 05:29:29;;;;;;;;;10.20;9.20;;;;;19.72;81.98;98980.38;5097392;28;8860;-61
2023/07/29 05:31:57;;;;;;;;;3.60;2.80;;;;;19.74;81.37;98975.63;5097378;28;8898;-61
2023/07/29 05:34:25;;;;;;;;;6.20;3.60;;;;;19.76;81.47;98980.81;5097750;28;9525;-60
2023/07/29 05:36:52;;;;;;;;;6.20;4.80;;;;;19.78;81.96;98976.88;5097527;28;8829;-58
2023/07/29 05:39:20;;;;;;;;;6.00;4.40;;;;;19.82;81.90;98980.84;5097125;28;8823;-61
2023/07/29 05:41:47;;;;;;;;;5.00;5.00;;;;;19.84;81.60;98984.19;5097447;28;8820;-59
2023/07/29 05:44:15;;;;;;;;;4.60;4.60;;;;;19.89;81.42;98972.75;5097683;28;8820;-61
2023/07/29 05:46:43;;;;;;;;;4.80;4.80;;;;;19.92;81.02;98975.88;5096898;28;8807;-61
2023/07/29 05:49:10;;;;;;;;;7.40;6.20;;;;;19.94;80.71;98963.00;5097110;28;8884;-61
2023/07/29 05:51:38;;;;;;;;;7.20;6.80;;;;;19.97;80.87;98968.00;5097341;28;8846;-59
2023/07/29 05:54:06;;;;;;;;;10.20;9.00;;;;;19.99;80.96;98959.66;5097332;28;8811;-59
2023/07/29 05:56:34;;;;;;;;;7.20;6.60;;;;;19.99;81.35;98949.69;5096670;28;8850;-61
2023/07/29 05:59:02;;;;;;;;;10.40;10.20;;;;;20.01;81.26;98944.91;5096671;28;8816;-60
2023/07/29 06:01:30;;;;;;;;;11.40;10.00;;;;;20.03;81.24;98950.94;5097227;28;8819;-61
2023/07/29 06:03:58;;;;;;;;;7.60;7.00;;;;;20.03;81.40;98959.03;5096747;28;8834;-61
2023/07/29 06:06:25;;;;;;;;;9.60;8.00;;;;;20.02;81.45;98960.09;5096741;28;8839;-59
2023/07/29 06:08:53;;;;;;;;;8.00;7.20;;;;;20.03;81.36;98980.66;5096880;28;8819;-61
2023/07/29 06:11:21;;;;;;;;;10.40;9.20;;;;;20.02;80.94;98984.41;5096540;28;8841;-61
2023/07/29 06:13:48;;;;;;;;;8.00;7.00;;;;;20.02;80.83;98991.72;5096507;28;8827;-58
2023/07/29 06:16:16;;;;;;;;;6.20;5.00;;;;;20.00;81.06;99005.41;5096808;28;8815;-61
2023/07/29 06:18:44;;;;;;;;;9.60;9.20;;;;;19.98;81.08;99010.22;5096347;28;8952;-60
2023/07/29 06:21:16;;;;;;;;;7.00;7.00;;;;;19.99;81.59;99027.25;5096055;28;8815;-60
2023/07/29 06:23:44;;;;;;;;;7.00;5.40;;;;;19.97;81.58;99026.63;5096344;28;9486;-60
2023/07/29 06:26:12;;;;;;;;;5.80;5.80;;;;;19.94;81.31;99038.66;5096220;28;8807;-61
2023/07/29 06:28:39;;;;;;;;;8.00;8.00;;;;;19.90;81.78;99032.03;5096415;28;8824;-61
2023/07/29 06:31:07;;;;;;;;;4.60;4.60;;;;;19.87;81.84;99034.28;5096303;28;8950;-60
2023/07/29 06:33:35;;;;;;;;;4.00;2.00;;;;;19.82;82.27;99034.06;5095795;28;8910;-60
2023/07/29 06:36:02;;;;;;;;;5.00;4.00;;;;;19.81;82.00;99032.41;5095879;28;8823;-61
2023/07/29 06:38:30;;;;;;;;;4.00;4.00;;;;;19.76;81.75;99035.72;5096070;28;8854;-61
2023/07/29 06:40:57;;;;;;;;;4.00;4.00;;;;;19.73;82.03;99046.91;5095928;28;8826;-61
2023/07/29 06:43:25;;;;;;;;;5.20;5.20;;;;;19.72;82.14;99047.94;5096489;28;8814;-61
2023/07/29 06:45:53;;;;;;;;;5.20;5.20;;;;;19.74;81.61;99054.00;5096445;28;9606;-61
2023/07/29 06:48:21;;;;;;;;;4.80;4.80;;;;;19.74;81.98;99059.41;5096022;28;8848;-61
2023/07/29 06:50:49;;;;;;;;;7.00;4.00;;;;;19.73;82.14;99071.22;5095945;28;8839;-61
2023/07/29 06:53:17;;;;;;;;;7.00;5.20;;;;;19.71;81.87;99059.78;5094918;28;8838;-61
2023/07/29 06:55:45;;;;;;;;;6.00;4.40;;;;;19.72;81.98;99066.03;5094788;28;8830;-61
2023/07/29 06:58:13;;;;;;;;;2.20;2.20;;;;;19.73;81.66;99063.13;5094061;28;8864;-60
2023/07/29 07:00:40;;;;;;;;;4.60;4.60;;;;;19.73;81.24;99060.41;5094696;28;8817;-61
2023/07/29 07:03:08;;;;;;;;;5.40;4.40;;;;;19.78;81.92;99055.25;5094863;28;8828;-61
2023/07/29 07:05:36;;;;;;;;;3.80;3.80;;;;;19.83;81.08;99068.16;5094871;28;8937;-61
2023/07/29 07:08:04;;;;;;;;;2.40;2.20;;;;;19.86;81.51;99067.75;5095583;28;8842;-61
2023/07/29 07:10:33;;;;;;;;;7.00;5.00;;;;;19.87;81.47;99070.25;5095045;28;8818;-61
2023/07/29 07:13:01;;;;;;;;;4.00;3.40;;;;;19.91;80.94;99081.47;5095220;28;8830;-61
2023/07/29 07:15:29;;;;;;;;;5.80;5.80;;;;;19.91;80.98;99074.22;5095498;28;8949;-58
2023/07/29 07:17:56;;;;;;;;;7.40;7.40;;;;;19.91;81.47;99086.88;5095432;28;8822;-59
2023/07/29 07:20:24;;;;;;;;;5.20;5.20;;;;;19.92;81.11;99088.56;5095490;28;9512;-61
2023/07/29 07:22:52;;;;;;;;;5.20;5.00;;;;;19.92;81.24;99086.69;5095442;28;8818;-61
2023/07/29 07:25:20;;;;;;;;;4.20;4.20;;;;;19.91;80.99;99086.88;5095937;28;8818;-61
2023/07/29 07:27:48;;;;;;;;;4.80;3.20;;;;;19.87;80.80;99094.56;5095913;28;8833;-61
2023/07/29 07:30:16;;;;;;;;;5.00;5.00;;;;;19.85;81.03;99083.13;5096101;28;8830;-58
2023/07/29 07:32:45;;;;;;;;;4.00;3.60;;;;;19.85;81.00;99085.84;5095650;28;8883;-60
2023/07/29 07:35:13;;;;;;;;;4.00;3.80;;;;;19.84;81.33;99086.03;5095841;28;8902;-61
2023/07/29 07:37:40;;;;;;;;;2.20;2.20;;;;;19.81;81.19;99083.75;5095722;28;8838;-60
2023/07/29 07:40:08;;;;;;;;;4.00;3.80;;;;;19.78;81.23;99084.97;5095319;28;8872;-60
2023/07/29 07:42:35;;;;;;;;;1.00;1.00;;;;;19.73;81.09;99083.91;5095136;28;8819;-61
2023/07/29 07:45:03;;;;;;;;;2.00;2.00;;;;;19.70;81.24;99093.25;5095357;28;8807;-61
2023/07/29 07:47:32;;;;;;;;;2.20;2.20;;;;;19.67;81.39;99090.97;5095418;28;8804;-61
2023/07/29 07:50:00;;;;;;;;;1.00;1.00;;;;;19.68;81.44;99087.22;5095745;28;8828;-58
2023/07/29 07:52:27;;;;;;;;;1.00;1.00;;;;;19.74;81.10;99080.16;5095841;28;8841;-61
2023/07/29 07:54:55;;;;;;;;;4.00;4.00;;;;;19.83;80.56;99082.50;5095062;28;8827;-61
2023/07/29 07:57:23;;;;;;;;;1.80;1.20;;;;;19.92;80.40;99075.03;5095027;28;8836;-61
2023/07/29 07:59:52;;;;;;;;;1.40;0.80;;;;;19.94;80.66;99073.81;5094776;28;8820;-60
2023/07/29 08:02:20;;;;;;;;;1.00;1.00;;;;;19.96;80.63;99069.03;5095063;28;8834;-61
2023/07/29 08:04:48;;;;;;;;;1.00;1.00;;;;;20.02;80.17;99070.09;5095220;28;8820;-60
2023/07/29 08:07:15;;;;;;;;;1.00;1.00;;;;;20.10;79.44;99054.53;5094475;28;8836;-61
2023/07/29 08:09:43;;;;;;;;;1.40;1.40;;;;;20.20;79.34;99068.53;5093914;28;8837;-61
2023/07/29 08:12:11;;;;;;;;;1.00;1.00;;;;;20.33;78.85;99068.53;5098406;28;9818;-60
2023/07/29 08:14:39;;;;;;;;;1.00;1.00;;;;;20.53;78.55;99069.41;5098794;28;8863;-58
2023/07/29 08:17:06;;;;;;;;;1.00;1.00;;;;;20.72;78.33;99060.50;5098461;28;9771;-61
2023/07/29 08:19:35;;;;;;;;;1.00;1.00;;;;;20.90;77.56;99058.00;5098318;28;8836;-58
2023/07/29 08:22:02;;;;;;;;;1.40;1.00;;;;;21.02;77.23;99064.47;5098292;28;9473;-61
2023/07/29 08:24:30;;;;;;;;;1.00;1.00;;;;;21.05;77.01;99066.75;5097757;28;8839;-59
2023/07/29 08:26:58;;;;;;;;;0.80;0.80;;;;;21.16;76.85;99066.09;5098226;28;8824;-61
2023/07/29 08:29:25;;;;;;;;;1.00;1.00;;;;;21.30;76.05;99081.28;5098436;28;8803;-59
2023/07/29 08:31:55;;;;;;;;;0.20;0.20;;;;;21.35;75.84;99084.19;5098625;28;8850;-61
2023/07/29 08:34:22;;;;;;;;;1.00;0.60;;;;;21.40;76.04;99085.22;5098017;28;8823;-61
2023/07/29 08:36:51;;;;;;;;;1.00;1.00;;;;;21.37;76.38;99091.09;5097514;28;8871;-61
2023/07/29 08:39:18;;;;;;;;;1.00;1.00;;;;;21.31;76.12;99080.25;5096915;28;8829;-60
2023/07/29 08:41:46;;;;;;;;;1.00;1.00;;;;;21.30;76.57;99081.28;5097787;28;8845;-61
2023/07/29 08:44:14;;;;;;;;;1.00;1.00;;;;;21.42;75.83;99083.13;5096935;28;8957;-60
2023/07/29 08:46:42;;;;;;;;;0.80;0.80;;;;;21.60;75.81;99072.47;5097280;28;8853;-59
2023/07/29 08:49:09;;;;;;;;;0.60;0.60;;;;;21.73;75.06;99077.03;5096699;28;8950;-61
2023/07/29 08:51:37;;;;;;;;;1.00;1.00;;;;;21.79;75.15;99092.47;5096213;28;8830;-61
2023/07/29 08:54:05;;;;;;;;;0.80;0.20;;;;;21.83;74.83;99088.25;5096493;28;8849;-60
2023/07/29 08:56:33;;;;;;;;;0.80;0.80;;;;;21.95;74.37;99087.38;5096572;28;8833;-59
2023/07/29 08:59:02;;;;;;;;;2.00;1.80;;;;;21.95;74.56;99078.41;5096987;28;8903;-59
2023/07/29 09:01:30;;;;;;;;;1.00;1.00;;;;;21.87;74.50;99084.91;5096205;28;8936;-59
2023/07/29 09:03:58;;;;;;;;;0.80;0.80;;;;;21.79;75.04;99081.63;5097338;28;8844;-59
2023/07/29 09:06:27;;;;;;;;;0.20;0.20;;;;;21.73;75.29;99083.31;5097567;28;8826;-59
2023/07/29 09:08:56;;;;;;;;;1.00;0.20;;;;;21.70;75.07;99083.72;5098195;28;8826;-59
2023/07/29 09:11:23;;;;;;;;;0.40;0.40;;;;;21.73;74.77;99085.19;5097726;28;8827;-59
2023/07/29 09:13:52;;;;;;;;;0.00;0.00;;;;;21.82;74.13;99081.19;5097735;28;8829;-61
2023/07/29 09:16:20;;;;;;;;;1.00;0.60;;;;;22.00;74.35;99073.19;5095644;28;8852;-61
2023/07/29 09:18:49;;;;;;;;;1.00;1.00;;;;;22.20;73.73;99079.34;5097592;28;8853;-59
2023/07/29 09:21:17;;;;;;;;;0.20;0.00;;;;;22.44;72.95;99081.31;5097327;28;8838;-61
2023/07/29 09:23:45;;;;;;;;;0.80;0.80;;;;;22.57;72.38;99060.34;5097765;28;8838;-61
2023/07/29 09:26:13;;;;;;;;;1.20;1.20;;;;;22.77;71.66;99071.06;5097182;28;8832;-59
2023/07/29 09:28:40;;;;;;;;;0.20;0.20;;;;;22.91;71.82;99073.44;5097213;28;8822;-60
2023/07/29 09:31:08;;;;;;;;;0.20;0.20;;;;;23.02;71.32;99069.16;5096902;28;8841;-60
2023/07/29 09:33:36;;;;;;;;;1.00;1.00;;;;;22.99;71.40;99066.91;5096663;28;8796;-59
2023/07/29 09:36:04;;;;;;;;;1.00;1.00;;;;;22.95;71.84;99062.97;5096749;28;8828;-61
2023/07/29 09:38:32;;;;;;;;;1.00;1.00;;;;;22.87;71.78;99076.81;5097177;28;8870;-59
2023/07/29 09:41:00;;;;;;;;;0.00;0.00;;;;;22.86;71.09;99073.28;5096391;28;8973;-59
2023/07/29 09:43:28;;;;;;;;;1.00;1.00;;;;;23.05;71.12;99068.72;5096204;28;8815;-59
2023/07/29 09:45:55;;;;;;;;;1.40;1.00;;;;;23.30;70.47;99075.00;5096109;28;8826;-60
2023/07/29 09:48:23;;;;;;;;;1.00;1.00;;;;;23.57;69.43;99079.94;5096038;28;8814;-60
2023/07/29 09:50:51;;;;;;;;;1.00;1.00;;;;;23.72;68.89;99077.69;5096254;28;9538;-60
2023/07/29 09:53:19;;;;;;;;;1.00;1.00;;;;;23.89;68.84;99077.94;5095542;28;8841;-59
2023/07/29 09:55:46;;;;;;;;;1.80;1.00;;;;;24.19;67.67;99073.38;5095488;28;8964;-59
2023/07/29 09:58:14;;;;;;;;;1.00;0.60;;;;;24.49;67.29;99074.19;5094850;28;8814;-60
2023/07/29 10:00:42;;;;;;;;;1.00;1.00;;;;;24.58;66.84;99081.00;5095019;28;8818;-60
2023/07/29 10:03:10;;;;;;;;;1.40;1.00;;;;;24.41;67.49;99077.25;5095012;28;8854;-60
2023/07/29 10:05:38;;;;;;;;;0.80;0.80;;;;;24.30;67.85;99084.31;5094909;28;8826;-61
2023/07/29 10:08:06;;;;;;;;;1.00;1.00;;;;;24.67;67.26;99079.59;5095044;28;8830;-59
2023/07/29 10:10:34;;;;;;;;;0.00;0.00;;;;;24.84;66.75;99084.16;5095385;28;8802;-60
2023/07/29 10:13:01;;;;;;;;;1.00;1.00;;;;;24.96;66.57;99079.53;5095055;28;8818;-61
2023/07/29 10:15:29;;;;;;;;;1.00;1.00;;;;;24.93;66.56;99090.91;5094493;28;8887;-60
2023/07/29 10:17:57;;;;;;;;;1.00;1.00;;;;;25.33;65.97;99080.19;5094593;28;8810;-59
2023/07/29 10:20:25;;;;;;;;;1.00;1.00;;;;;26.01;64.35;99077.41;5095264;28;8842;-59
2023/07/29 10:22:53;;;;;;;;;1.00;1.00;;;;;26.24;63.12;99080.06;5094941;28;8936;-59
2023/07/29 10:25:20;;;;;;;;;1.40;1.00;;;;;25.92;64.19;99087.03;5094971;28;8840;-59
2023/07/29 10:27:48;;;;;;;;;1.00;1.00;;;;;25.50;65.61;99083.88;5095150;28;8850;-61
2023/07/29 10:30:16;;;;;;;;;1.00;1.00;;;;;25.16;66.26;99076.47;5095158;28;8826;-59
2023/07/29 10:32:44;;;;;;;;;1.40;1.40;;;;;24.90;66.56;99082.38;5095255;28;8807;-59
2023/07/29 10:35:12;;;;;;;;;2.00;2.00;;;;;24.83;67.46;99079.75;5095216;28;8830;-60
2023/07/29 10:37:40;;;;;;;;;2.00;1.60;;;;;25.00;67.19;99088.06;5095680;28;8881;-59
2023/07/29 10:40:08;;;;;;;;;2.80;2.80;;;;;25.17;66.30;99067.25;5094407;28;8887;-61
2023/07/29 10:42:36;;;;;;;;;2.00;2.00;;;;;25.85;65.15;99060.91;5094228;28;8945;-61
2023/07/29 10:45:04;;;;;;;;;2.20;1.00;;;;;26.64;62.85;99055.44;5094885;28;8956;-61
2023/07/29 10:47:32;;;;;;;;;1.20;0.60;;;;;26.67;63.28;99065.88;5094306;28;8841;-61
2023/07/29 10:50:00;;;;;;;;;1.60;1.60;;;;;26.18;64.36;99067.38;5094561;28;8922;-60
2023/07/29 10:52:28;;;;;;;;;1.80;1.80;;;;;25.78;65.41;99071.13;5094855;28;8867;-60
2023/07/29 10:54:56;;;;;;;;;3.00;2.60;;;;;25.35;65.83;99064.44;5094718;28;8826;-61
2023/07/29 10:57:23;;;;;;;;;1.60;1.60;;;;;24.99;66.80;99078.22;5095091;28;8840;-60
2023/07/29 10:59:51;;;;;;;;;2.00;2.00;;;;;24.69;67.58;99074.75;5095558;28;8964;-60
2023/07/29 11:02:19;;;;;;;;;2.80;2.80;;;;;24.45;67.67;99070.25;5094899;28;8806;-59
2023/07/29 11:04:46;;;;;;;;;2.00;2.00;;;;;24.23;67.95;99071.84;5095160;28;8820;-61
2023/07/29 11:07:14;;;;;;;;;3.00;3.00;;;;;24.04;68.44;99073.75;5095067;28;8842;-60
2023/07/29 11:09:42;;;;;;;;;1.80;1.80;;;;;24.06;68.85;99068.09;5095005;28;8842;-58
2023/07/29 11:12:10;;;;;;;;;2.00;1.80;;;;;24.13;68.73;99063.41;5095572;28;8814;-59
2023/07/29 11:14:37;;;;;;;;;1.00;1.00;;;;;24.18;68.08;99060.78;5094946;28;8847;-59
2023/07/29 11:17:05;;;;;;;;;0.80;0.80;;;;;24.47;67.33;99062.69;5094892;28;8820;-59
2023/07/29 11:19:34;;;;;;;;;2.00;2.00;;;;;25.04;66.28;99078.38;5095170;28;8835;-61
2023/07/29 11:22:02;;;;;;;;;2.40;2.00;;;;;25.97;64.23;99065.28;5095160;28;8842;-58
2023/07/29 11:24:30;;;;;;;;;2.00;2.00;;;;;26.09;63.43;99063.38;5094886;28;8822;-61
2023/07/29 11:26:58;;;;;;;;;2.00;2.00;;;;;25.92;63.88;99067.09;5094917;28;8830;-59
2023/07/29 11:29:25;;;;;;;;;1.60;1.60;;;;;25.55;64.48;99062.16;5094980;28;8833;-59
2023/07/29 11:31:54;;;;;;;;;1.00;1.00;;;;;25.72;64.58;99045.63;5094353;28;8822;-59
2023/07/29 11:34:21;;;;;;;;;1.00;1.00;;;;;26.22;63.14;99049.44;5094773;28;8828;-61
2023/07/29 11:36:49;;;;;;;;;2.00;2.00;;;;;26.62;62.04;99036.56;5094915;28;8843;-59
2023/07/29 11:39:17;;;;;;;;;1.00;1.00;;;;;26.91;61.73;99042.78;5095246;28;8942;-58
2023/07/29 11:41:45;;;;;;;;;2.00;2.00;;;;;27.51;60.23;99043.72;5095092;28;8839;-59
2023/07/29 11:44:12;;;;;;;;;1.40;1.40;;;;;27.89;59.11;99043.72;5095158;28;9535;-59